INFORMACIÓN METAR y TAF
METAR FOR EDDW
ADDS - METARS form results

(1142 UTC 10 August 2020)
Data provider http://aviationweather.gov/metar/data/
 
METAR text: EDDW 101120Z 08006KT 050V130 CAVOK 31/16 Q1016 NOSIG
Conditions at: EDDW (BREMEN , DE) observed 1120 UTC 10 August 2020
Temperature: 31.0°C (88°F)
Dewpoint: 16.0°C (61°F) [RH = 40%]
Pressure (altimeter): 30.00 inches Hg (1016.0 mb)
Winds: from the E (80 degrees) at 7 MPH (6 knots; 3.1 m/s)
Visibility: 6 or more miles (10+ km)
Ceiling: ceiling and visibility are OK
Clouds: unknown
Weather: no significant weather observed at this time

METAR text: EDDW 101050Z 10006KT 050V180 CAVOK 30/15 Q1016 NOSIG
Conditions at: EDDW (BREMEN , DE) observed 1050 UTC 10 August 2020
Temperature: 30.0°C (86°F)
Dewpoint: 15.0°C (59°F) [RH = 40%]
Pressure (altimeter): 30.00 inches Hg (1016.0 mb)
Winds: from the E (100 degrees) at 7 MPH (6 knots; 3.1 m/s)
Visibility: 6 or more miles (10+ km)
Ceiling: ceiling and visibility are OK
Clouds: unknown
Weather: no significant weather observed at this time

Forecast for: EDDW (BREMEN , DE)
Text: TAF EDDW 101100Z 1012/1112 10007KT CAVOK
Forecast period: 1200 UTC 10 August 2020 to 1200 UTC 11 August 2020
Forecast type: FROM: standard forecast or significant change
Winds: from the E (100 degrees) at 8 MPH (7 knots; 3.6 m/s)
Visibility: 6 or more miles (10+ km)
Ceiling: unknown
Clouds: missing
Weather: NSW  (no significant weather)
Text: PROB30
Forecast period: 1300 to 1900 UTC 10 August 2020
Forecast type: TEMPORARY: The following changes expected for less than half the time period
Winds: from the E (100 degrees) at 23 MPH (20 knots; 10.3 m/s)
gusting to 40 MPH (35 knots; 18.0 m/s)
Visibility: missing
Ceiling: at least 12,000 feet AGL
Clouds: scattered clouds at 5000 feet AGL
Weather: TSRA  (rain associated with thunderstorm(s))

MAPA DE AEROPUERTO

INFORMACIÓN DE PISTA
Pista 05 Longitud 2297 ft Ancho 75 ft
Elevación 0 ft Umbral desplazado 0 ft Rumbo de pista 52
Pista 23 Longitud 2297 ft Ancho 75 ft
Elevación 13 ft Umbral desplazado 0 ft Rumbo de pista 232
Pista 09 Longitud 6693 ft Ancho 148 ft
Elevación 13 ft Umbral desplazado 0 ft Rumbo de pista 88
Pista 27 Longitud 6693 ft Ancho 148 ft
Elevación 14 ft Umbral desplazado 0 ft Rumbo de pista 268

FRECUANCIAS DEL AEROPUERTO
Tipo AFIS Nombre INFO Frecuencia 125.1 MHZ
Tipo APP Nombre RADAR Frecuencia 124.8 MHZ
Tipo ATIS Nombre ATIS Frecuencia 117.45 MHZ
Tipo GND Nombre GND Frecuencia 121.75 MHZ
Tipo TWR Nombre TWR Frecuencia 120.325 MHZ

RADIO AYUDAS DEL AEROPUERTO
Tipo VOR-DME Nombre Bremen Frecuencia 117450 KHZ